createdAt,value
2018-07-12T00:00:25.355Z,99.90
2018-07-12T00:02:51.946Z,99.90
2018-07-12T00:05:18.566Z,99.90
2018-07-12T00:07:45.118Z,99.90
2018-07-12T00:10:11.669Z,99.90
2018-07-12T00:12:38.170Z,99.90
2018-07-12T00:15:04.718Z,99.90
2018-07-12T00:17:31.198Z,99.90
2018-07-12T00:19:57.719Z,99.90
2018-07-12T00:22:24.213Z,99.90
2018-07-12T00:24:50.744Z,99.90
2018-07-12T00:27:17.229Z,99.90
2018-07-12T00:29:43.744Z,99.90
2018-07-12T00:32:10.232Z,99.90
2018-07-12T00:34:36.773Z,99.90
2018-07-12T00:37:03.255Z,99.90
2018-07-12T00:39:29.813Z,99.90
2018-07-12T00:44:23.290Z,99.90
2018-07-12T00:46:49.799Z,99.90
2018-07-12T00:49:16.306Z,99.90
2018-07-12T00:51:42.897Z,99.90
2018-07-12T00:54:09.394Z,99.90
2018-07-12T00:56:35.969Z,99.90
2018-07-12T01:03:56.701Z,99.90
2018-07-12T01:06:23.206Z,99.90
2018-07-12T01:08:49.699Z,99.90
2018-07-12T01:11:16.230Z,99.90
2018-07-12T01:13:42.723Z,99.90
2018-07-12T01:16:09.269Z,99.90
2018-07-12T01:21:02.741Z,99.90
2018-07-12T01:23:29.499Z,99.90
2018-07-12T01:28:23.065Z,99.90
2018-07-12T01:30:49.587Z,99.90
2018-07-12T01:33:16.081Z,99.90
2018-07-12T01:35:42.678Z,99.90
2018-07-12T01:38:09.154Z,99.90
2018-07-12T01:40:35.836Z,99.90
2018-07-12T01:43:02.329Z,99.90
2018-07-12T01:45:28.849Z,99.90
2018-07-12T01:47:55.370Z,99.90
2018-07-12T01:52:48.826Z,99.90
2018-07-12T01:55:15.300Z,99.90
2018-07-12T01:57:43.712Z,99.90
2018-07-12T02:00:10.450Z,99.90
2018-07-12T02:02:37.004Z,99.90
2018-07-12T02:05:03.516Z,99.90
2018-07-12T02:07:30.062Z,99.90
2018-07-12T02:09:56.541Z,99.90
2018-07-12T02:14:50.022Z,99.90
2018-07-12T02:17:16.596Z,99.90
2018-07-12T02:19:43.090Z,99.90
2018-07-12T02:24:36.609Z,99.90
2018-07-12T02:27:03.187Z,99.90
2018-07-12T02:29:29.670Z,99.90
2018-07-12T02:31:56.207Z,99.90
2018-07-12T02:34:22.728Z,99.90
2018-07-12T02:36:49.267Z,99.90
2018-07-12T02:39:15.821Z,99.90
2018-07-12T02:41:42.652Z,99.90
2018-07-12T02:44:09.217Z,99.90
2018-07-12T02:46:35.774Z,99.90
2018-07-12T02:53:56.479Z,99.90
2018-07-12T02:56:23.020Z,99.90
2018-07-12T02:58:49.557Z,99.90
2018-07-12T03:01:16.036Z,99.90
2018-07-12T03:03:42.561Z,99.90
2018-07-12T03:08:36.034Z,99.90
2018-07-12T03:13:29.702Z,99.90
2018-07-12T03:15:56.238Z,99.90
2018-07-12T03:23:16.702Z,99.90
2018-07-12T03:25:43.235Z,99.90
2018-07-12T03:28:09.771Z,99.90
2018-07-12T03:30:36.266Z,99.90
2018-07-12T03:33:02.909Z,99.90
2018-07-12T03:37:56.430Z,99.90
2018-07-12T03:40:22.912Z,99.90
2018-07-12T03:42:49.453Z,99.90
2018-07-12T03:45:16.097Z,99.90
2018-07-12T03:50:09.821Z,99.90
2018-07-12T03:52:36.348Z,99.90
2018-07-12T03:55:02.832Z,99.90
2018-07-12T03:57:29.383Z,99.90
2018-07-12T04:04:49.805Z,99.90
2018-07-12T04:07:16.339Z,99.90
2018-07-12T04:09:42.831Z,99.90
2018-07-12T04:12:09.353Z,99.90
2018-07-12T04:14:35.838Z,99.90
2018-07-12T04:17:02.370Z,99.90
2018-07-12T04:19:28.860Z,99.90
2018-07-12T04:21:55.385Z,99.90
2018-07-12T04:24:21.916Z,99.90
2018-07-12T04:26:48.465Z,99.90
2018-07-12T04:29:14.949Z,99.90
2018-07-12T04:31:41.496Z,99.90
2018-07-12T04:34:07.984Z,99.90
2018-07-12T04:36:34.477Z,99.90
2018-07-12T04:39:01.012Z,99.90
2018-07-12T04:41:27.493Z,99.90
2018-07-12T04:43:54.001Z,99.90
2018-07-12T04:46:20.494Z,99.90
2018-07-12T04:51:14.266Z,99.90
2018-07-12T04:53:40.786Z,99.90
2018-07-12T04:56:07.332Z,99.90
2018-07-12T04:58:33.851Z,99.90
2018-07-12T05:01:00.372Z,99.90
2018-07-12T05:03:26.869Z,99.90
2018-07-12T05:08:20.433Z,99.90
2018-07-12T05:10:46.965Z,99.90
2018-07-12T05:13:13.445Z,99.90
2018-07-12T05:15:39.988Z,99.90
2018-07-12T05:18:06.496Z,99.90
2018-07-12T05:20:33.107Z,99.90
2018-07-12T05:22:59.669Z,99.90
2018-07-12T05:25:26.170Z,99.90
2018-07-12T05:27:52.723Z,99.90
2018-07-12T05:32:46.333Z,99.90
2018-07-12T05:35:12.816Z,99.90
2018-07-12T05:37:40.321Z,99.90
2018-07-12T05:40:07.869Z,99.90
2018-07-12T05:42:35.341Z,99.90
2018-07-12T05:45:02.963Z,99.90
2018-07-12T05:47:30.469Z,99.90
2018-07-12T05:52:25.558Z,99.90
2018-07-12T05:54:53.108Z,99.90
2018-07-12T05:57:20.791Z,99.90
2018-07-12T05:59:48.523Z,99.90
2018-07-12T06:02:18.745Z,99.90
2018-07-12T06:04:46.670Z,99.90
2018-07-12T06:07:18.845Z,99.90
2018-07-12T06:09:46.812Z,99.90
2018-07-12T06:12:14.542Z,99.90
2018-07-12T06:14:42.074Z,99.90
2018-07-12T06:17:09.646Z,99.90
2018-07-12T06:19:37.190Z,99.90
2018-07-12T06:22:04.898Z,99.90
2018-07-12T06:24:32.494Z,99.90
2018-07-12T06:27:00.172Z,99.90
2018-07-12T06:29:27.768Z,99.90
2018-07-12T06:34:22.930Z,99.90
2018-07-12T06:36:50.585Z,99.90
2018-07-12T06:39:18.271Z,99.90
2018-07-12T06:41:45.815Z,99.90
2018-07-12T06:44:13.360Z,99.90
2018-07-12T06:46:40.943Z,99.90
2018-07-12T06:49:08.505Z,99.90
2018-07-12T06:51:36.121Z,99.90
2018-07-12T06:54:03.761Z,99.90
2018-07-12T06:58:58.904Z,99.90
2018-07-12T07:01:26.493Z,99.90
2018-07-12T07:03:54.256Z,99.90
2018-07-12T07:06:21.873Z,99.90
2018-07-12T07:11:17.056Z,99.90
2018-07-12T07:13:44.661Z,99.90
2018-07-12T07:16:12.370Z,99.90
2018-07-12T07:18:39.924Z,99.90
2018-07-12T07:21:07.517Z,99.90
2018-07-12T07:26:02.697Z,99.90
2018-07-12T07:28:30.294Z,99.90
2018-07-12T07:30:57.973Z,99.90
2018-07-12T07:38:20.630Z,99.90
2018-07-12T07:40:48.166Z,99.90
2018-07-12T07:43:15.785Z,99.90
2018-07-12T07:45:43.334Z,99.90
2018-07-12T07:48:10.919Z,99.90
2018-07-12T07:50:38.448Z,99.90
2018-07-12T07:53:06.048Z,99.90
2018-07-12T07:55:33.604Z,99.90
2018-07-12T07:58:01.206Z,99.90
2018-07-12T08:00:28.754Z,99.90
2018-07-12T08:02:56.367Z,99.90
2018-07-12T08:05:23.929Z,99.90
2018-07-12T08:07:52.146Z,99.90
2018-07-12T08:10:19.844Z,99.90
2018-07-12T08:12:47.397Z,99.90
2018-07-12T08:17:42.982Z,99.90
2018-07-12T08:20:10.523Z,99.90
2018-07-12T08:22:38.098Z,99.90
2018-07-12T08:25:05.752Z,99.90
2018-07-12T08:27:33.349Z,99.90
2018-07-12T08:30:01.008Z,99.90
2018-07-12T08:34:56.102Z,99.90
2018-07-12T08:37:23.760Z,99.90
2018-07-12T08:39:51.388Z,99.90
2018-07-12T08:42:19.003Z,99.90
2018-07-12T08:47:14.180Z,99.90
2018-07-12T08:49:41.864Z,99.90
2018-07-12T08:52:09.462Z,99.90
2018-07-12T08:57:04.729Z,99.90
2018-07-12T08:59:32.309Z,99.90
2018-07-12T09:01:59.898Z,99.90
2018-07-12T09:09:22.553Z,99.90
2018-07-12T09:11:54.822Z,99.90
2018-07-12T09:16:50.172Z,99.90
2018-07-12T09:21:45.325Z,99.90
2018-07-12T09:24:12.913Z,99.90
2018-07-12T09:26:40.469Z,99.90
2018-07-12T09:29:08.397Z,99.90
2018-07-12T09:31:35.995Z,99.90
2018-07-12T09:34:03.600Z,99.90
2018-07-12T09:36:31.271Z,99.90
2018-07-12T09:38:58.829Z,99.90
2018-07-12T09:41:26.436Z,99.90
2018-07-12T09:43:54.006Z,99.90
2018-07-12T09:46:21.630Z,99.90
2018-07-12T09:48:50.337Z,99.90
2018-07-12T09:51:17.889Z,99.90
2018-07-12T09:53:46.441Z,99.90
2018-07-12T09:56:14.962Z,99.90
2018-07-12T09:58:43.182Z,99.90
2018-07-12T10:01:16.551Z,99.90
2018-07-12T10:03:53.084Z,99.90
2018-07-12T10:06:31.386Z,99.90
2018-07-12T10:09:04.708Z,99.90
2018-07-12T10:11:37.968Z,99.90
2018-07-12T10:14:11.434Z,99.90
2018-07-12T10:16:44.384Z,99.90
2018-07-12T10:19:11.974Z,99.90
2018-07-12T10:24:07.156Z,99.90
2018-07-12T10:26:34.725Z,99.90
2018-07-12T10:29:02.349Z,99.90
2018-07-12T10:31:29.923Z,99.90
2018-07-12T10:33:57.515Z,99.90
2018-07-12T10:36:25.074Z,99.90
2018-07-12T10:38:52.768Z,99.90
2018-07-12T10:41:20.350Z,99.90
2018-07-12T10:43:47.960Z,99.90
2018-07-12T10:46:16.073Z,99.90
2018-07-12T10:48:43.656Z,99.90
2018-07-12T10:51:11.245Z,99.90
2018-07-12T10:53:38.807Z,99.90
2018-07-12T10:56:06.443Z,99.90
2018-07-12T10:58:34.060Z,99.90
2018-07-12T11:01:01.614Z,99.90
2018-07-12T11:03:29.242Z,99.90
2018-07-12T11:05:56.846Z,99.90
2018-07-12T11:08:24.416Z,99.90
2018-07-12T11:10:52.014Z,99.90
2018-07-12T11:13:29.926Z,99.90
2018-07-12T11:15:57.442Z,99.90
2018-07-12T11:18:25.105Z,99.90
2018-07-12T11:20:52.648Z,99.90
2018-07-12T11:23:20.233Z,99.90
2018-07-12T11:25:47.773Z,99.90
2018-07-12T11:28:15.385Z,99.90
2018-07-12T11:30:43.027Z,99.90
2018-07-12T11:33:22.137Z,99.90
2018-07-12T11:35:49.734Z,99.90
2018-07-12T11:38:17.299Z,99.90
2018-07-12T11:40:44.969Z,99.90
2018-07-12T11:45:40.042Z,99.90
2018-07-12T11:48:07.617Z,99.90
2018-07-12T11:50:35.148Z,99.90
2018-07-12T11:53:02.750Z,99.90
2018-07-12T11:55:30.328Z,99.90
2018-07-12T12:00:25.446Z,99.90
2018-07-12T12:05:20.730Z,99.90
2018-07-12T12:07:48.290Z,99.90
2018-07-12T12:10:15.893Z,99.90
2018-07-12T12:12:43.435Z,99.90
2018-07-12T12:17:38.614Z,99.90
2018-07-12T12:20:06.169Z,99.90
2018-07-12T12:22:33.753Z,99.90
2018-07-12T12:25:01.314Z,99.90
2018-07-12T12:27:28.901Z,99.90
2018-07-12T12:29:56.513Z,99.90
2018-07-12T12:32:24.099Z,99.90
2018-07-12T12:34:51.665Z,99.90
2018-07-12T12:37:19.386Z,99.90
2018-07-12T12:39:46.949Z,99.90
2018-07-12T12:42:14.546Z,99.90
2018-07-12T12:47:09.691Z,99.90
2018-07-12T12:49:37.322Z,99.90
2018-07-12T12:52:05.010Z,99.90
2018-07-12T12:54:32.567Z,99.90
2018-07-12T12:59:27.674Z,99.90
2018-07-12T13:01:55.288Z,99.90
2018-07-12T13:04:22.830Z,99.90
2018-07-12T13:06:50.461Z,99.90
2018-07-12T13:11:45.548Z,99.90
2018-07-12T13:14:13.285Z,99.90
2018-07-12T13:16:40.808Z,99.90
2018-07-12T13:19:08.425Z,99.90
2018-07-12T13:21:35.962Z,99.90
2018-07-12T13:24:03.605Z,99.90
2018-07-12T13:26:31.138Z,99.90
2018-07-12T13:31:26.294Z,99.90
2018-07-12T13:33:53.875Z,99.90
2018-07-12T13:36:21.476Z,99.90
2018-07-12T13:38:49.076Z,99.90
2018-07-12T13:41:16.672Z,99.90
2018-07-12T13:43:44.205Z,99.90
2018-07-12T13:46:11.811Z,99.90
2018-07-12T13:48:39.361Z,99.90
2018-07-12T13:51:06.993Z,99.90
2018-07-12T13:53:34.656Z,99.90
2018-07-12T13:56:02.180Z,99.90
2018-07-12T13:58:29.821Z,99.90
2018-07-12T14:00:57.397Z,99.90
2018-07-12T14:03:24.999Z,99.90
2018-07-12T14:05:52.543Z,99.90
2018-07-12T14:08:20.315Z,99.90
2018-07-12T14:10:47.909Z,99.90
2018-07-12T14:15:43.038Z,99.90
2018-07-12T14:18:10.568Z,99.90
2018-07-12T14:20:38.157Z,99.90
2018-07-12T14:23:05.789Z,99.90
2018-07-12T14:28:00.916Z,99.90
2018-07-12T14:30:28.491Z,99.90
2018-07-12T14:35:23.572Z,99.90
2018-07-12T14:37:51.243Z,99.90
2018-07-12T14:40:18.989Z,99.90
2018-07-12T14:42:46.558Z,99.90
2018-07-12T14:45:14.170Z,99.90
2018-07-12T14:47:41.750Z,99.90
2018-07-12T14:50:09.347Z,99.90
2018-07-12T14:52:36.966Z,99.90
2018-07-12T14:55:04.501Z,99.70
2018-07-12T14:57:32.208Z,99.70
2018-07-12T14:59:59.728Z,99.80
2018-07-12T15:02:27.428Z,99.80
2018-07-12T15:04:54.961Z,99.60
2018-07-12T15:07:22.548Z,99.50
2018-07-12T15:09:50.223Z,99.90
2018-07-12T15:14:45.363Z,99.50
2018-07-12T15:17:12.986Z,98.70
2018-07-12T15:19:40.510Z,98.40
2018-07-12T15:22:08.206Z,97.40
2018-07-12T15:24:35.743Z,95.50
2018-07-12T15:27:03.373Z,94.10
2018-07-12T15:29:30.981Z,92.60
2018-07-12T15:31:58.477Z,92.50
2018-07-12T15:34:26.050Z,91.40
2018-07-12T15:39:21.245Z,90.80
2018-07-12T15:41:48.775Z,90.00
2018-07-12T15:44:16.381Z,90.30
2018-07-12T15:49:11.634Z,89.60
2018-07-12T15:51:39.187Z,87.10
2018-07-12T15:54:06.744Z,89.10
2018-07-12T15:56:34.340Z,89.30
2018-07-12T15:59:02.023Z,90.00
2018-07-12T16:01:29.658Z,89.70
2018-07-12T16:03:57.238Z,91.20
2018-07-12T16:06:24.813Z,91.50
2018-07-12T16:11:20.095Z,91.20
2018-07-12T16:13:47.976Z,91.70
2018-07-12T16:16:15.930Z,91.50
2018-07-12T16:18:44.960Z,92.50
2018-07-12T16:21:12.855Z,93.00
2018-07-12T16:23:40.469Z,92.20
2018-07-12T16:26:08.106Z,92.70
2018-07-12T16:28:35.696Z,93.10
2018-07-12T16:33:30.841Z,93.00
2018-07-12T16:38:26.250Z,93.10
2018-07-12T16:43:21.550Z,91.80
2018-07-12T16:45:49.097Z,92.00
2018-07-12T16:48:16.692Z,91.60
2018-07-12T16:50:45.238Z,91.40
2018-07-12T16:53:13.018Z,91.60
2018-07-12T16:55:40.548Z,91.30
2018-07-12T16:58:08.092Z,90.60
2018-07-12T17:00:35.754Z,90.90
2018-07-12T17:03:03.319Z,91.60
2018-07-12T17:05:30.918Z,91.50
2018-07-12T17:07:58.474Z,91.80
2018-07-12T17:10:26.056Z,91.60
2018-07-12T17:15:21.254Z,91.10
2018-07-12T17:17:48.860Z,91.20
2018-07-12T17:20:18.608Z,91.60
2018-07-12T17:22:46.232Z,91.40
2018-07-12T17:25:13.819Z,91.20
2018-07-12T17:27:41.591Z,90.70
2018-07-12T17:30:12.275Z,91.00
2018-07-12T17:32:39.838Z,90.30
2018-07-12T17:35:07.442Z,89.80
2018-07-12T17:37:34.973Z,89.80
2018-07-12T17:40:02.564Z,89.90
2018-07-12T17:42:30.204Z,90.00
2018-07-12T17:44:57.753Z,88.70
2018-07-12T17:47:25.350Z,87.90
2018-07-12T17:49:53.006Z,88.50
2018-07-12T17:52:20.613Z,87.40
2018-07-12T17:54:48.172Z,87.90
2018-07-12T17:57:15.750Z,87.90
2018-07-12T17:59:43.334Z,85.90
2018-07-12T18:02:10.915Z,87.00
2018-07-12T18:04:38.553Z,87.70
2018-07-12T18:07:06.154Z,87.50
2018-07-12T18:09:33.712Z,88.60
2018-07-12T18:12:01.317Z,89.30
2018-07-12T18:14:28.881Z,89.30
2018-07-12T18:16:56.452Z,90.00
2018-07-12T18:19:24.486Z,88.20
2018-07-12T18:21:52.118Z,88.10
2018-07-12T18:24:19.622Z,89.20
2018-07-12T18:26:47.229Z,90.90
2018-07-12T18:29:14.784Z,91.90
2018-07-12T18:31:42.300Z,93.20
2018-07-12T18:34:09.873Z,94.50
2018-07-12T18:36:37.406Z,93.80
2018-07-12T18:39:06.684Z,94.90
2018-07-12T18:41:34.262Z,95.90
2018-07-12T18:44:01.832Z,97.20
2018-07-12T18:46:29.429Z,97.90
2018-07-12T18:48:57.094Z,99.40
2018-07-12T18:53:52.291Z,99.80
2018-07-12T18:56:19.862Z,99.70
2018-07-12T18:58:47.521Z,99.90
2018-07-12T19:01:15.051Z,99.90
2018-07-12T19:03:42.668Z,99.90
2018-07-12T19:08:37.789Z,99.90
2018-07-12T19:11:05.373Z,99.90
2018-07-12T19:13:32.966Z,99.90
2018-07-12T19:16:00.509Z,99.90
2018-07-12T19:18:28.354Z,99.90
2018-07-12T19:20:55.954Z,99.90
2018-07-12T19:23:23.569Z,99.90
2018-07-12T19:25:51.120Z,99.90
2018-07-12T19:28:18.694Z,99.90
2018-07-12T19:30:46.249Z,99.90
2018-07-12T19:33:13.833Z,99.90
2018-07-12T19:35:41.370Z,99.90
2018-07-12T19:38:08.955Z,99.90
2018-07-12T19:40:36.505Z,99.90
2018-07-12T19:43:04.122Z,99.90
2018-07-12T19:50:26.792Z,99.90
2018-07-12T19:52:54.405Z,99.90
2018-07-12T19:55:21.967Z,99.90
2018-07-12T19:57:49.641Z,99.90
2018-07-12T20:00:17.372Z,99.90
2018-07-12T20:02:44.937Z,99.90
2018-07-12T20:05:12.470Z,99.90
2018-07-12T20:07:40.182Z,99.90
2018-07-12T20:10:07.817Z,99.90
2018-07-12T20:12:35.417Z,99.90
2018-07-12T20:15:03.091Z,99.90
2018-07-12T20:17:30.743Z,99.90
2018-07-12T20:19:58.349Z,99.90
2018-07-12T20:22:25.908Z,99.90
2018-07-12T20:24:53.501Z,99.90
2018-07-12T20:27:21.035Z,99.90
2018-07-12T20:29:48.632Z,99.90
2018-07-12T20:32:16.491Z,99.90
2018-07-12T20:34:44.036Z,99.90
2018-07-12T20:37:11.747Z,99.90
2018-07-12T20:42:11.469Z,99.90
2018-07-12T20:47:06.655Z,99.90
2018-07-12T20:49:34.250Z,99.90
2018-07-12T20:52:01.899Z,99.90
2018-07-12T20:59:24.757Z,99.90
2018-07-12T21:01:52.437Z,99.90
2018-07-12T21:04:19.991Z,99.90
2018-07-12T21:06:47.526Z,99.90
2018-07-12T21:09:15.119Z,99.90
2018-07-12T21:11:42.653Z,99.90
2018-07-12T21:14:10.236Z,99.90
2018-07-12T21:16:37.842Z,99.90
2018-07-12T21:19:05.584Z,99.90
2018-07-12T21:21:33.125Z,99.90
2018-07-12T21:26:28.416Z,99.90
2018-07-12T21:28:55.965Z,99.90
2018-07-12T21:31:23.495Z,99.90
2018-07-12T21:33:51.109Z,99.90
2018-07-12T21:36:18.699Z,99.90
2018-07-12T21:38:46.243Z,99.90
2018-07-12T21:41:13.818Z,99.90
2018-07-12T21:43:41.431Z,99.90
2018-07-12T21:46:09.006Z,99.90
2018-07-12T21:48:36.589Z,99.90
2018-07-12T21:53:31.732Z,99.90
2018-07-12T21:55:59.289Z,99.90
2018-07-12T21:58:26.851Z,99.90
2018-07-12T22:00:54.447Z,99.90
2018-07-12T22:03:22.026Z,99.90
2018-07-12T22:08:22.141Z,99.90
2018-07-12T22:10:51.131Z,99.90
2018-07-12T22:13:19.348Z,99.90
2018-07-12T22:18:14.508Z,99.90
2018-07-12T22:20:42.116Z,99.90
2018-07-12T22:23:09.702Z,99.90
2018-07-12T22:25:37.564Z,99.90
2018-07-12T22:28:05.272Z,99.90
2018-07-12T22:30:32.873Z,99.90
2018-07-12T22:33:01.612Z,99.90
2018-07-12T22:35:29.141Z,99.90
2018-07-12T22:37:57.801Z,99.90
2018-07-12T22:47:48.303Z,99.90
2018-07-12T22:50:16.213Z,99.90
2018-07-12T22:52:43.829Z,99.90
2018-07-12T22:55:13.369Z,99.90
2018-07-12T23:02:38.737Z,99.90
2018-07-12T23:05:06.649Z,99.90
2018-07-12T23:07:34.265Z,99.90
2018-07-12T23:10:01.857Z,99.90
2018-07-12T23:12:29.510Z,99.90
2018-07-12T23:14:57.076Z,99.90
2018-07-12T23:17:24.673Z,99.90
2018-07-12T23:22:20.279Z,99.90
2018-07-12T23:24:47.974Z,99.90
2018-07-12T23:27:15.529Z,99.90
2018-07-12T23:32:10.598Z,99.90
2018-07-12T23:34:38.246Z,99.90
2018-07-12T23:37:05.897Z,99.90
2018-07-12T23:39:33.609Z,99.90
2018-07-12T23:42:01.255Z,99.90
2018-07-12T23:44:28.804Z,99.90
2018-07-12T23:46:56.397Z,99.90
2018-07-12T23:51:51.530Z,99.90
2018-07-12T23:56:46.715Z,99.90
2018-07-12T23:59:14.578Z,99.90
